Time;durP1;ratioP1;P1;durP2;ratioP2;P2;SDS_P1;SDS_P2;PMS_P1;PMS_P2;Temp;Humidity;BMP_temperature;BMP_pressure;BME280_temperature;BME280_humidity;BME280_pressure;Samples;Min_cycle;Max_cycle;Signal;HPM_P1;HPM_P2
2024/05/05 00:00:10;;;;;;;10.80;6.63;;;;;;;10.88;100.00;101090.38;5394441;25;94671;-78
2024/05/05 00:02:36;;;;;;;10.65;6.75;;;;;;;10.84;100.00;101086.09;5391339;26;94828;-78
2024/05/05 00:05:01;;;;;;;12.18;7.00;;;;;;;10.81;100.00;101070.44;5393167;26;94065;-79
2024/05/05 00:07:26;;;;;;;12.90;6.97;;;;;;;10.86;100.00;101093.03;5358100;26;94811;-79
2024/05/05 00:09:52;;;;;;;14.38;8.13;;;;;;;10.85;100.00;101085.22;5363000;26;96564;-79
2024/05/05 00:12:17;;;;;;;14.20;8.70;;;;;;;10.66;100.00;101053.47;5354801;26;115842;-79
2024/05/05 00:14:42;;;;;;;14.40;8.98;;;;;;;10.84;100.00;101081.72;5359929;26;93945;-79
2024/05/05 00:17:08;;;;;;;13.30;9.05;;;;;;;10.80;100.00;101071.34;5392442;25;96731;-79
2024/05/05 00:19:33;;;;;;;12.75;8.02;;;;;;;10.80;100.00;101085.41;5390381;26;94462;-79
2024/05/05 00:21:58;;;;;;;12.20;7.90;;;;;;;10.66;100.00;101042.94;5385744;26;101954;-79
2024/05/05 00:24:24;;;;;;;13.95;7.72;;;;;;;10.77;100.00;101069.72;5392680;26;93834;-79
2024/05/05 00:26:49;;;;;;;15.27;8.48;;;;;;;10.70;100.00;101063.81;5356733;26;94304;-77
2024/05/05 00:29:14;;;;;;;13.32;7.88;;;;;;;10.72;100.00;101061.13;5358139;26;96304;-77
2024/05/05 00:31:40;;;;;;;13.63;7.22;;;;;;;10.72;100.00;101059.38;5360001;26;104860;-78
2024/05/05 00:34:05;;;;;;;13.13;6.82;;;;;;;10.51;100.00;101024.19;5391233;26;94297;-78
2024/05/05 00:36:30;;;;;;;12.45;7.20;;;;;;;10.69;100.00;101056.84;5388671;26;114279;-78
2024/05/05 00:38:56;;;;;;;12.60;7.93;;;;;;;10.69;100.00;101053.34;5388827;26;94595;-79
2024/05/05 00:41:21;;;;;;;13.00;7.60;;;;;;;10.72;100.00;101055.84;5358361;26;99276;-78
2024/05/05 00:43:47;;;;;;;13.18;8.45;;;;;;;10.73;100.00;101057.59;5358422;26;93774;-78
2024/05/05 00:46:13;;;;;;;14.95;9.00;;;;;;;10.70;100.00;101066.44;5388678;26;94317;-78
2024/05/05 00:48:39;;;;;;;16.40;10.05;;;;;;;10.60;100.00;101044.03;5359639;26;94720;-78
2024/05/05 00:51:08;;;;;;;17.98;11.25;;;;;;;10.71;100.00;101056.78;5396916;25;93766;-78
2024/05/05 00:53:35;;;;;;;19.27;10.48;;;;;;;10.68;100.00;101052.47;5359497;26;93917;-78
2024/05/05 00:56:02;;;;;;;17.98;11.00;;;;;;;10.70;100.00;101060.34;5357404;26;96556;-79
2024/05/05 00:58:27;;;;;;;19.05;11.68;;;;;;;10.70;100.00;101055.91;5390354;26;94794;-78
2024/05/05 01:00:53;;;;;;;21.33;11.68;;;;;;;10.70;100.00;101053.28;5357533;26;94329;-79
2024/05/05 01:03:19;;;;;;;18.95;11.07;;;;;;;10.69;100.00;101048.09;5385550;26;94852;-78
2024/05/05 01:05:44;;;;;;;21.50;12.15;;;;;;;10.70;100.00;101048.00;5383270;26;94490;-79
2024/05/05 01:08:10;;;;;;;19.75;11.52;;;;;;;10.72;100.00;101047.94;5392725;25;94674;-79
2024/05/05 01:10:35;;;;;;;21.45;11.95;;;;;;;10.67;100.00;101039.38;5390417;26;93840;-78
2024/05/05 01:13:00;;;;;;;20.25;11.27;;;;;;;10.65;100.00;101028.06;5391930;26;93941;-78
2024/05/05 01:15:26;;;;;;;24.95;12.05;;;;;;;10.66;100.00;101038.53;5390645;26;94681;-78
2024/05/05 01:17:52;;;;;;;22.27;11.80;;;;;;;10.72;100.00;101048.84;5355766;26;94494;-78
2024/05/05 01:20:17;;;;;;;19.95;10.32;;;;;;;10.69;100.00;101046.31;5389276;26;93813;-78
2024/05/05 01:22:47;;;;;;;18.35;10.25;;;;;;;10.69;100.00;101045.47;5388130;26;93891;-78
2024/05/05 01:25:12;;;;;;;17.08;9.63;;;;;;;10.71;100.00;101046.25;5371775;26;97602;-78
2024/05/05 01:27:41;;;;;;;15.43;8.75;;;;;;;10.69;100.00;101045.47;5388902;26;95858;-78
2024/05/05 01:30:07;;;;;;;11.15;6.68;;;;;;;10.69;100.00;101048.09;5371840;26;94853;-79
2024/05/05 01:32:34;;;;;;;8.30;4.78;;;;;;;10.59;100.00;101034.41;5390183;26;93798;-79
2024/05/05 01:34:59;;;;;;;7.22;4.40;;;;;;;10.54;100.00;101039.00;5387442;26;94540;-79
2024/05/05 01:37:26;;;;;;;6.65;3.80;;;;;;;10.56;100.00;101050.31;5385614;26;94680;-79
2024/05/05 01:39:51;;;;;;;8.43;3.75;;;;;;;10.49;100.00;101043.56;5357233;26;93744;-78
2024/05/05 01:42:17;;;;;;;6.97;3.85;;;;;;;10.47;100.00;101042.81;5389836;26;93794;-78
2024/05/05 01:44:42;;;;;;;5.65;3.22;;;;;;;10.38;100.00;101044.03;5391528;25;94615;-79
2024/05/05 01:47:11;;;;;;;5.35;3.03;;;;;;;10.34;100.00;101047.69;5390902;26;94711;-79
2024/05/05 01:49:36;;;;;;;5.65;2.95;;;;;;;10.28;100.00;101061.06;5389214;26;93757;-79
2024/05/05 01:52:02;;;;;;;5.65;3.00;;;;;;;10.24;100.00;101059.44;5356509;26;94374;-79
2024/05/05 01:54:27;;;;;;;4.80;2.78;;;;;;;10.20;100.00;101057.84;5388973;26;94681;-79
2024/05/05 01:56:52;;;;;;;5.38;2.70;;;;;;;10.19;100.00;101064.88;5359583;26;96565;-79
2024/05/05 01:59:17;;;;;;;4.32;2.50;;;;;;;10.18;100.00;101071.03;5357893;26;100080;-79
2024/05/05 02:01:43;;;;;;;5.35;2.83;;;;;;;10.17;100.00;101063.19;5390257;26;94442;-79
2024/05/05 02:04:09;;;;;;;6.05;2.88;;;;;;;10.07;100.00;101041.66;5391686;25;94640;-78
2024/05/05 02:06:35;;;;;;;5.68;3.10;;;;;;;10.12;100.00;101058.13;5368267;26;96298;-78
2024/05/05 02:09:00;;;;;;;5.60;2.97;;;;;;;10.05;100.00;101055.78;5390275;26;93741;-79
2024/05/05 02:11:26;;;;;;;5.63;2.50;;;;;;;10.08;100.00;101058.28;5390521;26;93853;-79
2024/05/05 02:13:53;;;;;;;4.97;2.63;;;;;;;10.06;100.00;101052.22;5389296;26;94516;-79
2024/05/05 02:16:19;;;;;;;5.25;3.10;;;;;;;10.05;100.00;101059.25;5389562;26;94708;-79
2024/05/05 02:18:44;;;;;;;5.68;3.17;;;;;;;10.00;100.00;101053.31;5364309;26;94695;-80
2024/05/05 02:21:19;;;;;;;8.50;3.25;;;;;;;10.06;100.00;101063.59;5396041;26;93843;-79
2024/05/05 02:23:44;;;;;;;;;;;;;;;10.04;100.00;101073.34;5365059;26;96722;-79
2024/05/05 02:26:12;;;;;;;4.68;2.65;;;;;;;9.99;100.00;101060.34;5397342;26;94458;-79
2024/05/05 02:28:38;;;;;;;7.32;3.00;;;;;;;9.95;100.00;101058.72;5362728;26;93832;-78
2024/05/05 02:31:03;;;;;;;6.18;3.80;;;;;;;9.94;100.00;101056.16;5394673;26;101707;-78
2024/05/05 02:33:29;;;;;;;7.10;3.40;;;;;;;9.95;100.00;101057.88;5377412;26;96509;-77
2024/05/05 02:35:54;;;;;;;10.02;4.10;;;;;;;9.85;100.00;101045.97;5362310;26;105052;-78
2024/05/05 02:38:19;;;;;;;7.53;4.40;;;;;;;9.95;100.00;101068.38;5394450;26;93724;-78
2024/05/05 02:40:45;;;;;;;6.65;3.72;;;;;;;9.85;100.00;101053.88;5362648;26;106816;-78
2024/05/05 02:43:10;;;;;;;4.78;2.80;;;;;;;9.92;100.00;101058.00;5365835;26;94513;-78
2024/05/05 02:45:35;;;;;;;5.07;3.13;;;;;;;9.64;100.00;101016.03;5392729;26;94418;-78
2024/05/05 02:48:01;;;;;;;6.80;3.15;;;;;;;9.78;100.00;101033.03;5392395;26;93739;-78
2024/05/05 02:50:27;;;;;;;5.38;2.92;;;;;;;9.86;100.00;101045.06;5363367;26;94249;-78
2024/05/05 02:52:52;;;;;;;5.85;3.63;;;;;;;9.84;100.00;101044.25;5394858;26;94356;-78
2024/05/05 02:55:17;;;;;;;4.10;2.47;;;;;;;9.76;100.00;101036.63;5396450;26;95921;-78
2024/05/05 02:57:44;;;;;;;5.93;2.88;;;;;;;9.83;100.00;101050.41;5394476;26;94263;-78
2024/05/05 03:00:13;;;;;;;7.10;2.60;;;;;;;9.82;100.00;101041.69;5397059;26;93779;-78
2024/05/05 03:02:38;;;;;;;4.68;2.70;;;;;;;9.71;100.00;101026.28;5394595;26;94861;-78
2024/05/05 03:05:04;;;;;;;4.72;2.80;;;;;;;9.83;100.00;101053.91;5363440;26;96414;-77
2024/05/05 03:07:30;;;;;;;4.68;2.67;;;;;;;9.79;100.00;101036.53;5365224;26;94484;-77
2024/05/05 03:09:55;;;;;;;5.78;2.70;;;;;;;9.82;100.00;101043.47;5363551;26;93925;-77
2024/05/05 03:12:21;;;;;;;4.18;2.42;;;;;;;9.76;100.00;101037.50;5361530;26;94579;-77
2024/05/05 03:14:46;;;;;;;5.07;2.65;;;;;;;9.76;100.00;101040.16;5398986;26;95580;-76
2024/05/05 03:17:12;;;;;;;5.25;3.08;;;;;;;9.79;100.00;101041.78;5394656;26;94885;-77
2024/05/05 03:19:37;;;;;;;5.50;3.10;;;;;;;9.76;100.00;101055.03;5396834;26;93859;-76
2024/05/05 03:22:03;;;;;;;4.93;2.72;;;;;;;9.78;100.00;101038.31;5363668;26;94386;-76
2024/05/05 03:24:28;;;;;;;5.60;3.03;;;;;;;9.76;100.00;101052.41;5363371;26;94956;-77
2024/05/05 03:26:56;;;;;;;5.40;2.88;;;;;;;9.77;100.00;101051.50;5397900;26;93759;-77
2024/05/05 03:29:22;;;;;;;4.13;2.40;;;;;;;9.72;100.00;101035.91;5390735;26;93812;-77
2024/05/05 03:31:48;;;;;;;4.63;2.83;;;;;;;9.77;100.00;101043.63;5393399;26;94364;-77
2024/05/05 03:34:13;;;;;;;4.60;2.25;;;;;;;9.56;100.00;101007.56;5387683;26;94870;-77
2024/05/05 03:36:38;;;;;;;4.43;2.40;;;;;;;9.76;100.00;101037.50;5383049;26;94989;-77
2024/05/05 03:39:03;;;;;;;4.68;2.40;;;;;;;9.68;100.00;101023.75;5356610;26;93888;-77
2024/05/05 03:41:29;;;;;;;3.58;2.10;;;;;;;9.64;100.00;101021.28;5355878;26;99790;-78
2024/05/05 03:43:54;;;;;;;4.85;2.80;;;;;;;9.66;100.00;101014.22;5391697;26;108628;-78
2024/05/05 03:46:19;;;;;;;3.33;1.85;;;;;;;9.47;100.00;100993.00;5360253;26;93749;-77
2024/05/05 03:48:45;;;;;;;3.28;1.80;;;;;;;9.67;100.00;101024.69;5392406;26;103438;-77
2024/05/05 03:51:13;;;;;;;3.15;1.90;;;;;;;9.65;100.00;101023.03;5363382;26;94569;-77
2024/05/05 03:53:38;;;;;;;4.28;1.90;;;;;;;9.52;100.00;101012.06;5387599;26;94681;-77
2024/05/05 03:56:04;;;;;;;4.00;2.05;;;;;;;9.56;100.00;101034.72;5362369;26;93757;-77
2024/05/05 03:58:29;;;;;;;4.38;2.25;;;;;;;9.54;100.00;101033.91;5386109;26;93896;-77
2024/05/05 04:00:55;;;;;;;4.38;2.60;;;;;;;9.55;100.00;101040.88;5354337;26;94765;-78
2024/05/05 04:03:20;;;;;;;4.03;2.00;;;;;;;9.53;100.00;101033.06;5390231;26;94432;-76
2024/05/05 04:05:46;;;;;;;4.50;2.28;;;;;;;9.44;100.00;101022.00;5388822;26;93696;-78
2024/05/05 04:08:11;;;;;;;4.43;2.45;;;;;;;9.39;100.00;101022.16;5390542;26;95276;-77
2024/05/05 04:10:38;;;;;;;4.55;2.53;;;;;;;9.56;100.00;101047.84;5389202;26;94236;-78
2024/05/05 04:13:03;;;;;;;4.72;2.75;;;;;;;9.55;100.00;101051.41;5389223;26;94840;-77
2024/05/05 04:15:29;;;;;;;4.35;2.55;;;;;;;9.51;100.00;101041.91;5387856;26;93851;-77
2024/05/05 04:17:54;;;;;;;4.80;2.55;;;;;;;9.56;100.00;101052.25;5392274;26;93940;-77
2024/05/05 04:20:19;;;;;;;5.28;2.80;;;;;;;9.53;100.00;101045.31;5387337;26;108008;-77
2024/05/05 04:22:45;;;;;;;3.95;2.45;;;;;;;9.55;100.00;101059.28;5361067;26;96784;-76
2024/05/05 04:25:10;;;;;;;4.18;2.42;;;;;;;9.53;100.00;101067.25;5393428;26;95254;-77
2024/05/05 04:27:35;;;;;;;5.75;3.20;;;;;;;9.52;100.00;101062.00;5390814;26;93779;-77
2024/05/05 04:30:01;;;;;;;6.80;2.80;;;;;;;9.51;100.00;101066.41;5390608;26;108579;-77
2024/05/05 04:32:26;;;;;;;3.60;2.13;;;;;;;9.53;100.00;101063.72;5358561;26;94617;-77
2024/05/05 04:34:51;;;;;;;5.22;3.05;;;;;;;9.53;100.00;101071.59;5390004;26;93720;-76
2024/05/05 04:37:17;;;;;;;5.20;2.80;;;;;;;9.44;100.00;101057.03;5389855;26;94474;-76
2024/05/05 04:39:42;;;;;;;6.13;3.72;;;;;;;9.54;100.00;101078.59;5387479;26;96097;-77
2024/05/05 04:42:07;;;;;;;5.70;2.85;;;;;;;9.46;100.00;101064.88;5348125;26;101286;-76
2024/05/05 04:44:32;;;;;;;5.93;3.42;;;;;;;9.52;100.00;101072.53;5354195;26;93993;-76
2024/05/05 04:46:58;;;;;;;8.13;3.55;;;;;;;9.54;100.00;101071.56;5351216;26;93890;-77
2024/05/05 04:49:23;;;;;;;5.40;3.28;;;;;;;9.56;100.00;101075.91;5354132;26;97023;-76
2024/05/05 04:51:48;;;;;;;6.82;3.60;;;;;;;9.54;100.00;101079.47;5356618;26;94738;-77
2024/05/05 04:54:14;;;;;;;6.35;3.63;;;;;;;9.47;100.00;101069.22;5354990;26;94407;-76
2024/05/05 04:56:39;;;;;;;6.32;3.25;;;;;;;9.32;100.00;101028.53;5353342;26;93738;-76
2024/05/05 04:59:04;;;;;;;6.78;3.75;;;;;;;9.32;100.00;101023.28;5353470;26;103587;-76
2024/05/05 05:01:30;;;;;;;7.15;4.00;;;;;;;9.57;100.00;101061.84;5357767;26;94535;-77
2024/05/05 05:03:55;;;;;;;7.38;4.20;;;;;;;9.57;100.00;101061.84;5352023;26;113375;-76
2024/05/05 05:06:20;;;;;;;7.47;3.97;;;;;;;9.60;100.00;101070.50;5351209;26;96816;-77
2024/05/05 05:08:46;;;;;;;9.60;4.35;;;;;;;9.46;100.00;101046.47;5352565;26;94541;-76
2024/05/05 05:11:12;;;;;;;10.15;4.35;;;;;;;9.52;100.00;101059.38;5351331;26;94746;-77
2024/05/05 05:13:41;;;;;;;7.32;4.30;;;;;;;9.54;100.00;101068.09;5352358;26;104025;-77
2024/05/05 05:16:08;;;;;;;7.30;4.22;;;;;;;9.54;100.00;101073.34;5379610;26;93972;-76
2024/05/05 05:18:33;;;;;;;6.88;4.10;;;;;;;9.51;100.00;101076.94;5351582;26;113605;-77
2024/05/05 05:20:58;;;;;;;9.68;4.63;;;;;;;9.44;100.00;101071.94;5352509;26;115622;-77
2024/05/05 05:23:24;;;;;;;10.00;5.07;;;;;;;9.42;100.00;101076.41;5351671;26;115371;-77
2024/05/05 05:25:49;;;;;;;8.88;5.03;;;;;;;9.45;100.00;101081.53;5350386;26;99081;-78
2024/05/05 05:28:14;;;;;;;8.82;4.45;;;;;;;9.39;100.00;101079.13;5352344;26;118372;-78
2024/05/05 05:30:40;;;;;;;9.32;4.90;;;;;;;9.33;100.00;101068.81;5349281;26;115439;-78
2024/05/05 05:33:05;;;;;;;7.38;4.18;;;;;;;9.47;100.00;101098.97;5353689;26;94641;-78
2024/05/05 05:35:30;;;;;;;8.52;5.15;;;;;;;9.49;100.00;101088.41;5351942;26;94500;-78
2024/05/05 05:37:56;;;;;;;8.52;4.80;;;;;;;9.48;100.00;101090.16;5352429;26;94184;-78
2024/05/05 05:40:21;;;;;;;10.93;5.82;;;;;;;9.38;100.00;101066.88;5360018;26;94366;-78
2024/05/05 05:42:47;;;;;;;11.55;6.40;;;;;;;9.52;100.00;101081.28;5387717;26;93816;-78
2024/05/05 05:45:13;;;;;;;14.15;6.60;;;;;;;9.51;100.00;101083.97;5389137;26;93793;-78
2024/05/05 05:47:38;;;;;;;15.13;7.78;;;;;;;9.61;100.00;101087.13;5388801;26;94457;-78
2024/05/05 05:50:06;;;;;;;15.10;8.35;;;;;;;9.72;100.00;101098.13;5389637;26;94658;-78
2024/05/05 05:52:32;;;;;;;15.80;8.70;;;;;;;9.85;100.00;101109.94;5360359;26;95989;-78
2024/05/05 05:54:57;;;;;;;14.57;8.02;;;;;;;9.96;100.00;101099.91;5388510;26;93854;-78
2024/05/05 05:57:22;;;;;;;15.10;8.43;;;;;;;10.05;100.00;101090.81;5355224;26;107845;-78
2024/05/05 05:59:48;;;;;;;19.88;9.55;;;;;;;10.19;100.00;101092.97;5385960;26;111094;-78
2024/05/05 06:02:13;;;;;;;16.30;9.05;;;;;;;10.29;100.00;101075.94;5390493;26;94258;-78
2024/05/05 06:04:38;;;;;;;19.48;10.30;;;;;;;10.46;100.00;101094.59;5387873;26;94009;-78
2024/05/05 06:07:04;;;;;;;16.73;9.35;;;;;;;10.46;100.00;101091.09;5386322;26;94563;-78
2024/05/05 06:09:29;;;;;;;17.60;9.32;;;;;;;10.57;100.00;101107.34;5388754;26;95152;-78
2024/05/05 06:11:54;;;;;;;18.05;10.00;;;;;;;10.54;100.00;101099.56;5362907;25;93816;-78
2024/05/05 06:14:20;;;;;;;17.90;9.43;;;;;;;10.61;100.00;101100.16;5387181;26;94558;-79
2024/05/05 06:16:45;;;;;;;15.95;9.40;;;;;;;10.55;100.00;101089.88;5354796;26;113539;-78
2024/05/05 06:19:10;;;;;;;17.42;9.65;;;;;;;10.65;100.00;101102.66;5386822;26;113639;-78
2024/05/05 06:21:35;;;;;;;19.38;11.02;;;;;;;10.72;100.00;101103.25;5388121;26;93802;-78
2024/05/05 06:24:01;;;;;;;37.50;24.70;;;;;;;10.60;100.00;101061.59;5390032;25;96916;-78
2024/05/05 06:26:26;;;;;;;16.83;9.75;;;;;;;10.85;100.00;101091.34;5387866;26;94671;-77
2024/05/05 06:28:51;;;;;;;17.23;10.70;;;;;;;10.99;100.00;101099.56;5383852;26;115173;-78
2024/05/05 06:31:17;;;;;;;16.30;9.63;;;;;;;11.09;100.00;101096.53;5356101;26;94768;-77
2024/05/05 06:33:43;;;;;;;16.13;8.88;;;;;;;11.21;100.00;101102.16;5355309;26;93934;-78
2024/05/05 06:36:12;;;;;;;14.88;8.63;;;;;;;11.29;100.00;101108.91;5387086;26;94612;-78
2024/05/05 06:38:37;;;;;;;13.77;7.68;;;;;;;11.31;100.00;101096.53;5386621;26;94739;-77
2024/05/05 06:41:03;;;;;;;16.83;7.70;;;;;;;11.40;100.00;101098.75;5389873;26;102696;-78
2024/05/05 06:43:28;;;;;;;10.38;6.85;;;;;;;11.55;100.00;101107.81;5401382;26;95024;-79
2024/05/05 06:45:54;;;;;;;10.23;5.57;;;;;;;11.61;100.00;101108.44;5387829;26;94671;-78
2024/05/05 06:48:19;;;;;;;8.40;4.95;;;;;;;11.59;100.00;101102.34;5387952;26;94125;-79
2024/05/05 06:50:44;;;;;;;8.27;5.68;;;;;;;11.69;100.00;101114.22;5354410;26;93846;-79
2024/05/05 06:53:10;;;;;;;8.02;4.63;;;;;;;11.67;100.00;101094.97;5386240;26;93937;-78
2024/05/05 06:55:35;;;;;;;5.97;3.58;;;;;;;11.87;100.00;101123.16;5387652;26;95104;-78
2024/05/05 06:58:00;;;;;;;6.50;3.70;;;;;;;11.87;100.00;101111.72;5387236;26;94632;-78
2024/05/05 07:00:26;;;;;;;5.10;3.30;;;;;;;11.89;100.00;101129.22;5386655;26;113864;-78
2024/05/05 07:02:51;;;;;;;9.90;3.75;;;;;;;11.89;100.00;101116.03;5391750;26;93898;-78
2024/05/05 07:05:16;;;;;;;5.95;2.88;;;;;;;11.88;100.00;101116.97;5357934;26;94722;-78
2024/05/05 07:07:41;;;;;;;7.72;3.50;;;;;;;11.80;100.00;101111.13;5358049;26;96656;-78
2024/05/05 07:10:07;;;;;;;11.40;6.85;;;;;;;11.90;100.00;101128.28;5392275;26;94766;-78
2024/05/05 07:12:32;;;;;;;5.70;3.08;;;;;;;11.92;100.00;101130.88;5367472;26;95124;-78
2024/05/05 07:14:57;;;;;;;3.72;2.50;;;;;;;11.97;100.00;101134.16;5364837;26;115763;-78
2024/05/05 07:17:23;;;;;;;4.28;2.17;;;;;;;12.07;100.00;101138.13;5394054;26;94746;-78
2024/05/05 07:19:48;;;;;;;3.40;2.03;;;;;;;12.12;100.00;101138.78;5366037;26;104624;-79
2024/05/05 07:22:17;;;;;;;4.18;2.08;;;;;;;12.23;100.00;101140.09;5377058;26;94929;-79
2024/05/05 07:24:42;;;;;;;3.15;1.73;;;;;;;12.23;100.00;101134.81;5395944;26;94199;-79
2024/05/05 07:27:07;;;;;;;3.60;2.08;;;;;;;12.30;100.00;101131.84;5397982;26;114688;-79
2024/05/05 07:29:33;;;;;;;3.92;1.70;;;;;;;12.36;100.00;101131.53;5362602;26;93920;-79
2024/05/05 07:31:58;;;;;;;3.92;1.73;;;;;;;12.45;100.00;101143.47;5395204;26;94545;-79
2024/05/05 07:34:23;;;;;;;2.55;1.50;;;;;;;12.46;100.00;101148.69;5396412;26;101781;-79
2024/05/05 07:36:49;;;;;;;4.80;1.95;;;;;;;12.43;100.00;101137.41;5391109;26;94506;-79
2024/05/05 07:39:20;;;;;;;2.78;1.55;;;;;;;12.46;100.00;101142.56;5393820;26;93912;-79
2024/05/05 07:41:46;;;;;;;3.30;1.60;;;;;;;12.50;100.00;101149.41;5395749;26;93953;-78
2024/05/05 07:44:11;;;;;;;3.63;1.48;;;;;;;12.49;100.00;101141.53;5396225;25;94505;-78
2024/05/05 07:46:36;;;;;;;3.80;1.58;;;;;;;12.57;100.00;101150.84;5397003;26;94141;-76
2024/05/05 07:49:07;;;;;;;4.07;1.50;;;;;;;12.57;100.00;101136.75;5400763;26;94005;-77
2024/05/05 07:51:32;;;;;;;2.72;1.65;;;;;;;12.77;100.00;101152.56;5393384;26;94799;-77
2024/05/05 07:53:57;;;;;;;3.58;1.58;;;;;;;12.85;100.00;101142.50;5393447;26;94662;-77
2024/05/05 07:56:23;;;;;;;3.72;1.63;;;;;;;12.98;100.00;101140.13;5365652;26;94366;-77
2024/05/05 07:58:48;;;;;;;2.70;1.70;;;;;;;13.04;100.00;101138.97;5362504;26;93825;-77
2024/05/05 08:01:14;;;;;;;2.05;0.98;;;;;;;13.10;100.00;101136.03;5394692;26;93868;-77
2024/05/05 08:03:40;;;;;;;2.35;1.02;;;;;;;13.09;100.00;101121.09;5394395;26;94741;-77
2024/05/05 08:06:07;;;;;;;3.08;1.38;;;;;;;13.35;100.00;101143.66;5401211;26;96371;-77
2024/05/05 08:08:32;;;;;;;3.50;1.40;;;;;;;13.42;100.00;101145.09;5397842;26;94760;-76
2024/05/05 08:10:58;;;;;;;2.92;1.40;;;;;;;13.46;100.00;101132.56;5366698;26;110914;-76
2024/05/05 08:13:23;;;;;;;2.33;1.20;;;;;;;13.55;100.00;101130.31;5397188;26;94740;-77
2024/05/05 08:15:48;;;;;;;2.83;1.40;;;;;;;13.57;100.00;101132.91;5386396;26;94871;-77
2024/05/05 08:18:15;;;;;;;2.40;1.33;;;;;;;13.50;100.00;101116.47;5391131;26;93854;-77
2024/05/05 08:20:40;;;;;;;2.58;1.38;;;;;;;13.67;100.00;101144.72;5360463;26;94132;-76
2024/05/05 08:23:05;;;;;;;2.80;1.65;;;;;;;13.57;100.00;101117.88;5361636;26;94797;-75
2024/05/05 08:25:31;;;;;;;4.05;1.35;;;;;;;13.81;100.00;101138.72;5357026;25;94636;-74
2024/05/05 08:27:56;;;;;;;4.00;1.42;;;;;;;13.89;100.00;101144.47;5390435;26;94841;-77
2024/05/05 08:30:22;;;;;;;2.35;1.30;;;;;;;13.93;100.00;101152.19;5390317;26;94067;-75
2024/05/05 08:32:48;;;;;;;3.28;1.50;;;;;;;13.92;100.00;101141.69;5390671;26;94881;-75
2024/05/05 08:35:13;;;;;;;3.35;1.20;;;;;;;14.05;100.00;101147.19;5389375;26;94746;-75
2024/05/05 08:37:39;;;;;;;3.03;1.27;;;;;;;14.06;100.00;101135.66;5389349;26;94207;-76
2024/05/05 08:40:07;;;;;;;3.10;1.60;;;;;;;14.13;100.00;101148.50;5358833;26;94511;-75
2024/05/05 08:42:48;;;;;;;2.47;1.23;;;;;;;14.21;100.00;101148.09;5388313;26;94901;-73
2024/05/05 08:45:18;;;;;;;2.63;1.40;;;;;;;14.16;100.00;101131.59;5389977;25;94390;-76
2024/05/05 08:47:45;;;;;;;2.95;1.50;;;;;;;14.24;100.00;101145.28;5390343;26;93921;-77
2024/05/05 08:50:12;;;;;;;5.65;2.40;;;;;;;14.31;100.00;101146.69;5357312;26;94020;-75
2024/05/05 08:52:39;;;;;;;3.05;1.80;;;;;;;14.33;100.00;101131.53;5390647;26;94453;-74
2024/05/05 08:55:05;;;;;;;10.15;5.97;;;;;;;14.45;100.00;101143.28;5392650;26;94369;-74
2024/05/05 08:57:35;;;;;;;3.58;1.83;;;;;;;14.52;100.00;101150.00;5389332;26;94725;-74
2024/05/05 09:00:00;;;;;;;2.92;1.85;;;;;;;14.57;100.00;101136.50;5371891;26;93961;-76
2024/05/05 09:02:26;;;;;;;2.35;1.30;;;;;;;14.62;100.00;101137.97;5389767;26;94200;-75
2024/05/05 09:04:51;;;;;;;3.78;1.88;;;;;;;14.69;100.00;101143.78;5364304;26;94935;-75
2024/05/05 09:07:17;;;;;;;3.00;1.45;;;;;;;14.71;100.00;101144.53;5391366;26;94500;-76
2024/05/05 09:09:43;;;;;;;2.25;1.30;;;;;;;14.71;100.00;101135.75;5392495;26;94130;-75
2024/05/05 09:12:10;;;;;;;6.95;4.03;;;;;;;14.82;100.00;101141.31;5392094;25;94968;-75
2024/05/05 09:14:35;;;;;;;17.70;10.38;;;;;;;14.88;100.00;101143.63;5392476;26;94792;-75
2024/05/05 09:17:01;;;;;;;3.15;1.70;;;;;;;14.98;100.00;101136.84;5393833;26;94775;-74
2024/05/05 09:19:26;;;;;;;3.28;1.27;;;;;;;15.03;100.00;101134.81;5389981;26;94045;-75
2024/05/05 09:21:52;;;;;;;2.90;1.10;;;;;;;15.10;100.00;101130.84;5361534;26;94711;-75
2024/05/05 09:24:17;;;;;;;4.20;1.13;;;;;;;15.14;100.00;101126.25;5364096;26;94715;-75
2024/05/05 09:26:43;;;;;;;3.55;1.90;;;;;;;15.27;100.00;101140.53;5390211;26;94858;-74
2024/05/05 09:29:08;;;;;;;5.32;2.92;;;;;;;15.28;100.00;101138.72;5362527;26;93955;-74
2024/05/05 09:31:34;;;;;;;2.47;1.02;;;;;;;15.30;100.00;101143.00;5386109;26;107169;-75
2024/05/05 09:34:01;;;;;;;3.90;1.40;;;;;;;15.37;100.00;101132.88;5384369;26;94035;-75
2024/05/05 09:36:30;;;;;;;2.90;1.23;;;;;;;15.41;100.00;101133.56;5389824;26;94787;-76
2024/05/05 09:38:58;;;;;;;3.92;1.25;;;;;;;15.43;100.00;101126.38;5386470;26;94782;-75
2024/05/05 09:41:24;;;;;;;2.85;1.20;;;;;;;15.53;100.00;101146.13;5386367;26;94767;-82
2024/05/05 09:43:52;;;;;;;2.30;1.23;;;;;;;15.44;100.00;101150.16;5385917;26;94886;-77
2024/05/05 09:46:19;;;;;;;2.55;1.65;;;;;;;15.47;100.00;101149.13;5394326;26;93770;-77
2024/05/05 09:48:48;;;;;;;4.22;1.95;;;;;;;15.44;100.00;101138.69;5401649;26;94044;-78
2024/05/05 09:51:18;;;;;;;4.55;1.70;;;;;;;15.47;100.00;101151.78;5363055;26;94613;-77
2024/05/05 09:54:01;;;;;;;2.92;1.60;;;;;;;15.51;100.00;101137.41;5363588;26;97462;-80
2024/05/05 09:56:32;;;;;;;3.75;1.60;;;;;;;15.56;100.00;101130.84;5388139;26;93817;-75
2024/05/05 09:59:11;;;;;;;3.53;1.60;;;;;;;15.75;100.00;101137.78;5386837;26;116799;-75
2024/05/05 10:01:38;;;;;;;6.47;1.95;;;;;;;15.80;100.00;101130.41;5356683;26;97463;-77
2024/05/05 10:04:06;;;;;;;4.07;2.35;;;;;;;15.86;100.00;101130.03;5392519;26;94953;-76
2024/05/05 10:06:38;;;;;;;3.28;1.70;;;;;;;15.98;100.00;101144.38;5387704;26;93800;-77
2024/05/05 10:09:04;;;;;;;3.65;1.58;;;;;;;16.06;100.00;101140.31;5390231;26;94028;-78
2024/05/05 10:11:30;;;;;;;2.65;1.50;;;;;;;16.08;100.00;101135.75;5387486;26;94368;-78
2024/05/05 10:14:02;;;;;;;4.88;2.70;;;;;;;15.99;100.00;101136.34;5387985;26;94659;-78
2024/05/05 10:16:30;;;;;;;3.10;1.83;;;;;;;15.97;100.00;101134.69;5385989;26;93836;-78
2024/05/05 10:18:56;;;;;;;5.40;2.25;;;;;;;15.93;100.00;101127.88;5370908;26;94672;-78
2024/05/05 10:21:23;;;;;;;2.63;1.38;;;;;;;16.07;100.00;101136.72;5387442;26;94728;-79
2024/05/05 10:23:49;;;;;;;2.72;1.10;;;;;;;16.12;100.00;101125.81;5393329;26;95633;-78
2024/05/05 10:26:18;;;;;;;2.00;1.20;;;;;;;16.20;100.00;101112.06;5385845;26;93836;-79
2024/05/05 10:28:44;;;;;;;2.92;1.60;;;;;;;16.30;100.00;101119.38;5358496;26;94078;-76
2024/05/05 10:31:21;;;;;;;2.75;1.40;;;;;;;16.38;100.00;101120.69;5388606;26;94300;-77
2024/05/05 10:33:51;;;;;;;3.13;1.70;;;;;;;16.33;100.00;101113.88;5386585;26;94702;-78
2024/05/05 10:36:18;;;;;;;3.80;1.33;;;;;;;16.31;100.00;101130.84;5387712;26;94867;-78
2024/05/05 10:38:44;;;;;;;4.50;1.58;;;;;;;16.21;100.00;101127.88;5387814;25;93817;-78
2024/05/05 10:41:09;;;;;;;4.60;1.77;;;;;;;16.21;100.00;101130.53;5392635;25;94767;-78
2024/05/05 10:43:37;;;;;;;3.95;2.20;;;;;;;16.11;100.00;101130.28;5390622;26;94778;-78
2024/05/05 10:46:04;;;;;;;2.97;1.48;;;;;;;16.02;100.00;101135.28;5391438;25;94761;-78
2024/05/05 10:48:29;;;;;;;3.00;1.30;;;;;;;16.11;100.00;101130.28;5394688;26;95121;-78
2024/05/05 10:50:56;;;;;;;2.70;1.50;;;;;;;16.20;100.00;101118.22;5396870;26;94090;-79
2024/05/05 10:53:21;;;;;;;3.35;1.42;;;;;;;16.40;100.00;101116.97;5394953;26;94648;-79
2024/05/05 10:55:50;;;;;;;3.28;1.88;;;;;;;16.44;100.00;101120.31;5395494;26;101412;-79
2024/05/05 10:58:19;;;;;;;3.60;1.60;;;;;;;16.28;100.00;101093.84;5360300;26;94044;-76
2024/05/05 11:00:44;;;;;;;3.35;1.63;;;;;;;16.31;100.00;101109.59;5390624;26;95746;-77
2024/05/05 11:03:10;;;;;;;2.92;1.30;;;;;;;16.27;100.00;101124.00;5390586;26;94489;-76
2024/05/05 11:05:38;;;;;;;3.00;1.58;;;;;;;16.18;100.00;101120.13;5359253;26;94997;-76
2024/05/05 11:08:07;;;;;;;4.38;1.90;;;;;;;16.17;100.00;101129.03;5390199;26;96187;-76
2024/05/05 11:10:32;;;;;;;2.78;1.45;;;;;;;16.08;100.00;101124.28;5389492;26;94534;-75